Pagrindinis puslapis
METAR-TAF:

METAR-TAF

Oro uostai :

Kijevas, Ukraina

platuma: 50-24N, ilguma: 030-34E, Aukštis: 166 m

Dabartinis oras

Ataskaita buvo paskelbta 38 minutes, ne 08:00 UTC
Vėjas 4 kt iš Rytų, svyruoja nuo Rytų/Šiaurės Rytų ir Rytų/Pietryčių
Temperatūra 17°C
Drėgmė 55%
Slėgis 1020 hPa
Matomumas 10 km arba daugiau
nėra debesų žemiau 1500 m ir nėra kamuolinių lietaus debesų

METAR: UKKK 180800Z 09002MPS 060V120 CAVOK 17/08 Q1020 R08/70D NOSIG

Laikas: 11:38 (08:38 UTC)

Prognozė

Ataskaita buvo paskelbta 1 valandą ir 17 minutes, ne 07:21 UTC
Prognozė galioja nuo 18 metu 07 UTC su 19 metu 06 UTC
Vėjas 6 kt iš Rytų
Matomumas 10 km arba daugiau
Išsisklaidę debesys ne aukštis 3000 ft
Tapsmas
nuo 18 metu 18 UTC su 18 metu 20 UTC
Vėjas 6 kt iš Pietryčių
Laikinai
nuo 18 metu 20 UTC su 19 metu 06 UTC
Matomumas: 1000 m
Išsisklaidę debesys ne aukštis 500 ft
rūkana

TAF: UKKK 180721Z 1807/1906 09003MPS 9999 SCT030 BECMG 1818/1820 13003MPS TEMPO 1820/1906 1000 BR SCT005

Orai ataskaitas ir orų prognozės (METAR, TAF).

turimą stotys yra geltonos ir raudonos taškus žemėlapyje.

Perkelti pele per norėdami pamatyti stoties vardą.

Tada spustelėkite, norėdami matyti oro stebėjimo ir prognozės.

Norėdami pakeisti žemėlapį: spustelėkite ant žalios mygtukų su juodo kryžiaus žemyn,; žalią mygtuką su brūkšneliu, jei norite nutolinti; arba žalių rodyklių gretimoms žemėlapius.


METAR-TAF: